CDT,Max TemperatureF,Mean TemperatureF,Min TemperatureF,Max Dew PointF,MeanDew PointF,Min DewpointF,Max Humidity, Mean Humidity, Min Humidity, Max Sea Level PressureIn, Mean Sea Level PressureIn, Min Sea Level PressureIn, Max VisibilityMiles, Mean VisibilityMiles, Min VisibilityMiles, Max Wind SpeedMPH, Mean Wind SpeedMPH, Max Gust SpeedMPH,PrecipitationIn, CloudCover, Events, WindDirDegrees
2013-4-1,33,25,17,19,15,12,86,68,48,30.28,30.24,30.14,10,10,10,24,15,29,0.00,2,Snow,325
2013-4-2,39,28,17,23,20,16,100,72,48,30.33,30.29,30.26,10,10,10,14,3,18,0.00,1,,342
2013-4-3,53,37,21,32,25,18,93,62,41,30.33,30.22,30.07,10,10,10,25,8,33,0.00,0,,165
2013-4-4,51,40,28,32,29,25,93,65,41,30.19,30.11,30.03,10,10,5,21,15,28,0.00,1,Rain,305
2013-4-5,46,36,26,34,28,23,93,71,49,30.20,30.04,29.74,10,10,10,25,12,33,0.00,3,,89
2013-4-6,55,44,33,43,37,32,93,74,54,29.79,29.62,29.49,10,9,4,25,16,29,0.01,4,Rain,250
2013-4-7,50,40,30,45,36,30,100,90,66,29.92,29.82,29.69,10,6,2,17,9,24,0.02,7,Rain,57
2013-4-8,51,45,39,48,43,37,100,95,82,29.98,29.77,29.63,7,2,0,20,6,28,0.01,8,Fog-Rain,17
2013-4-9,39,34,30,37,32,28,100,94,87,30.09,29.98,29.90,10,6,2,30,17,36,1.46,8,Rain-Snow-Thunderstorm,6
2013-4-10,33,30,28,32,30,28,100,97,93,30.05,29.96,29.81,5,2,1,9,4,10,0.08,8,Snow,30
2013-4-11,33,32,30,34,31,30,100,98,93,29.81,29.67,29.60,5,2,0,16,2,18,0.33,8,Fog-Rain-Snow,19
2013-4-12,33,28,23,30,26,21,100,91,75,29.88,29.77,29.66,10,8,2,22,14,26,0.00,8,Snow,309
2013-4-13,35,30,26,28,26,23,100,83,65,29.92,29.88,29.84,10,10,10,16,10,18,0.00,6,,274
2013-4-14,37,34,30,37,32,28,100,93,81,29.84,29.55,29.33,10,7,0,23,16,31,0.03,6,Fog-Rain-Snow,95
2013-4-15,37,34,30,30,28,25,87,80,70,30.03,29.75,29.50,10,10,10,33,21,41,0.00,6,,247
2013-4-16,37,32,28,30,28,25,93,82,70,30.29,30.19,30.01,10,10,10,14,8,,0.00,3,,319
2013-4-17,39,36,33,36,33,30,100,92,87,30.28,30.09,29.89,10,7,1,20,10,26,0.25,8,Rain-Snow-Thunderstorm,20
2013-4-18,33,32,28,32,30,28,100,97,93,29.89,29.71,29.61,10,4,0,29,20,33,0.11,8,Snow,338
2013-4-19,32,28,24,28,24,19,100,84,75,30.03,29.80,29.63,10,8,2,29,18,36,0.00,4,Snow,308
2013-4-20,37,26,15,28,21,12,93,74,52,30.25,30.20,30.09,10,10,7,13,7,17,0.00,2,Snow,90
2013-4-21,53,44,35,45,36,27,93,80,65,30.21,30.10,30.00,10,10,7,18,12,26,0.00,5,Rain,166
2013-4-22,35,32,28,34,31,27,100,93,87,30.21,30.15,30.09,10,6,0,26,13,37,0.18,8,Snow,356
2013-4-23,32,26,21,27,22,18,93,81,64,30.22,30.16,30.10,10,10,4,25,19,24,0.00,1,Snow,311
2013-4-24,48,36,24,36,27,21,93,75,43,30.09,30.02,29.93,10,10,7,28,10,34,0.02,2,Rain,248
2013-4-25,57,40,24,37,28,21,86,61,36,30.21,30.11,29.98,10,10,10,21,11,25,0.00,0,Rain,215
2013-4-26,69,56,44,43,38,30,76,52,25,30.16,30.04,29.94,10,10,10,21,14,30,0.00,0,,255
2013-4-27,75,54,32,41,34,23,100,52,16,30.16,30.04,29.90,10,10,10,12,2,17,0.00,0,,182
2013-4-28,84,67,50,52,45,37,82,55,19,29.90,29.78,29.66,10,10,7,28,14,32,0.02,2,Rain-Thunderstorm,202
2013-4-29,75,58,42,54,44,36,88,60,34,29.84,29.71,29.49,10,10,10,16,9,18,0.00,1,Thunderstorm,71
2013-4-30,66,60,53,57,40,23,77,49,19,29.98,29.68,29.41,10,10,10,23,13,30,0.00,1,,289